Time;durP1;ratioP1;P1;durP2;ratioP2;P2;SDS_P1;SDS_P2;PMS_P1;PMS_P2;Temp;Humidity;BMP_temperature;BMP_pressure;BME280_temperature;BME280_humidity;BME280_pressure;Samples;Min_cycle;Max_cycle;Signal;HPM_P1;HPM_P2
2022/09/17 00:01:06;;;;;;;14.73;2.80;;;11.30;99.90;;;;;;5084236;28;20086;-62
2022/09/17 00:03:33;;;;;;;12.95;2.40;;;11.30;99.90;;;;;;5096566;28;20080;-63
2022/09/17 00:06:05;;;;;;;13.30;2.33;;;11.30;99.90;;;;;;5098667;28;20695;-63
2022/09/17 00:08:31;;;;;;;15.70;2.50;;;11.30;99.90;;;;;;5076361;28;20086;-64
2022/09/17 00:10:57;;;;;;;12.45;2.13;;;11.30;99.90;;;;;;5077689;28;20039;-63
2022/09/17 00:13:22;;;;;;;16.15;2.53;;;11.30;99.90;;;;;;5091174;28;20020;-62
2022/09/17 00:15:50;;;;;;;15.50;2.45;;;11.30;99.90;;;;;;5089624;28;20044;-63
2022/09/17 00:18:15;;;;;;;13.90;2.58;;;11.30;99.90;;;;;;5095867;28;20039;-65
2022/09/17 00:20:43;;;;;;;12.50;2.47;;;11.30;99.90;;;;;;5097875;28;20217;-63
2022/09/17 00:23:11;;;;;;;16.45;2.75;;;11.20;99.90;;;;;;5092869;28;20036;-63
2022/09/17 00:25:38;;;;;;;18.52;3.13;;;11.20;99.90;;;;;;5053464;28;20550;-63
2022/09/17 00:28:04;;;;;;;11.15;3.20;;;11.20;99.90;;;;;;5096940;28;20505;-64
2022/09/17 00:30:29;;;;;;;13.23;2.53;;;11.20;99.90;;;;;;5090558;28;20036;-63
2022/09/17 00:32:56;;;;;;;13.57;2.75;;;11.20;99.90;;;;;;5072296;28;20086;-63
2022/09/17 00:35:23;;;;;;;15.23;2.78;;;11.20;99.90;;;;;;5071440;28;20040;-63
2022/09/17 00:37:48;;;;;;;17.50;2.83;;;11.30;99.90;;;;;;5094534;28;20040;-64
2022/09/17 00:40:14;;;;;;;13.07;2.50;;;11.30;99.90;;;;;;5070923;28;20047;-63
2022/09/17 00:42:40;;;;;;;10.75;2.40;;;11.30;99.90;;;;;;5090379;28;20081;-63
2022/09/17 00:45:06;;;;;;;12.20;2.63;;;11.30;99.90;;;;;;5099945;28;20302;-63
2022/09/17 00:47:43;;;;;;;15.85;3.00;;;11.30;99.90;;;;;;5075207;28;20040;-63
2022/09/17 00:50:18;;;;;;;15.93;2.65;;;11.30;99.90;;;;;;5067067;28;20044;-64
2022/09/17 00:52:50;;;;;;;15.27;2.60;;;11.30;99.90;;;;;;5065842;28;20040;-63
2022/09/17 00:55:23;;;;;;;13.38;2.58;;;11.30;99.90;;;;;;5088479;28;20498;-63
2022/09/17 00:57:52;;;;;;;16.92;2.42;;;11.20;99.90;;;;;;5088703;28;20390;-64
2022/09/17 01:00:20;;;;;;;9.23;2.50;;;11.30;99.90;;;;;;5096835;28;20048;-63
2022/09/17 01:02:45;;;;;;;14.38;2.28;;;11.30;99.90;;;;;;5096174;28;20040;-64
2022/09/17 01:05:12;;;;;;;13.05;2.72;;;11.30;99.90;;;;;;5102659;28;20088;-63
2022/09/17 01:08:07;;;;;;;13.07;2.30;;;11.30;99.90;;;;;;5085775;28;20418;-64
2022/09/17 01:11:01;;;;;;;10.65;1.83;;;11.30;99.90;;;;;;5071637;28;20543;-63
2022/09/17 01:13:33;;;;;;;12.50;2.53;;;11.20;99.90;;;;;;5071912;28;20092;-64
2022/09/17 01:16:05;;;;;;;12.85;2.67;;;11.20;99.90;;;;;;5092171;28;20059;-63
2022/09/17 01:18:57;;;;;;;12.45;2.42;;;11.20;99.90;;;;;;5084823;28;20419;-63
2022/09/17 01:21:38;;;;;;;11.15;2.17;;;11.20;99.90;;;;;;5081805;28;20649;-64
2022/09/17 01:24:14;;;;;;;9.10;1.92;;;11.10;99.90;;;;;;5087090;28;20043;-64
2022/09/17 01:27:02;;;;;;;11.27;2.40;;;11.10;99.90;;;;;;5072508;28;20402;-64
2022/09/17 01:29:57;;;;;;;11.70;2.25;;;11.10;99.90;;;;;;5093460;28;20043;-64
2022/09/17 01:32:43;;;;;;;10.75;2.13;;;11.00;99.90;;;;;;5071684;28;20478;-63
2022/09/17 01:35:12;;;;;;;10.93;2.10;;;11.00;99.90;;;;;;5048608;28;20035;-63
2022/09/17 01:37:40;;;;;;;10.63;2.53;;;11.00;99.90;;;;;;5079486;28;20059;-64
2022/09/17 01:40:09;;;;;;;11.95;2.22;;;10.90;99.90;;;;;;5086747;28;20127;-64
2022/09/17 01:42:48;;;;;;;15.25;2.40;;;11.00;99.90;;;;;;5068318;28;20433;-63
2022/09/17 01:46:01;;;;;;;12.70;2.30;;;11.00;99.90;;;;;;5076896;28;20111;-63
2022/09/17 01:48:37;;;;;;;14.57;2.60;;;11.00;99.90;;;;;;5058728;28;20056;-63
2022/09/17 01:51:13;;;;;;;9.95;2.42;;;11.00;99.90;;;;;;5091923;28;20051;-63
2022/09/17 01:54:25;;;;;;;12.13;2.15;;;11.00;99.90;;;;;;5103209;27;20040;-64
2022/09/17 01:57:00;;;;;;;13.52;2.10;;;11.00;99.90;;;;;;5012612;28;20041;-63
2022/09/17 01:59:29;;;;;;;11.57;1.90;;;11.10;99.90;;;;;;5080274;28;20160;-65
2022/09/17 02:02:05;;;;;;;14.48;2.90;;;11.10;99.90;;;;;;5099928;28;20043;-64
2022/09/17 02:04:47;;;;;;;12.23;2.40;;;11.10;99.90;;;;;;5094186;28;20122;-63
2022/09/17 02:07:21;;;;;;;12.70;2.40;;;11.10;99.90;;;;;;5096888;28;20036;-64
2022/09/17 02:10:02;;;;;;;11.40;2.38;;;11.10;99.90;;;;;;5096448;28;20035;-64
2022/09/17 02:12:33;;;;;;;10.95;1.90;;;11.10;99.90;;;;;;5101169;28;20540;-63
2022/09/17 02:15:02;;;;;;;13.95;2.13;;;11.10;99.90;;;;;;5094932;28;20040;-63
2022/09/17 02:17:52;;;;;;;11.02;2.00;;;11.10;99.90;;;;;;5078690;28;20078;-63
2022/09/17 02:20:21;;;;;;;11.35;2.38;;;11.20;99.90;;;;;;5080559;28;20039;-63
2022/09/17 02:22:56;;;;;;;10.98;1.98;;;11.10;99.90;;;;;;5097592;28;20072;-63
2022/09/17 02:25:46;;;;;;;13.25;2.30;;;11.10;99.90;;;;;;5102068;28;20036;-63
2022/09/17 02:28:28;;;;;;;9.70;2.00;;;11.10;99.90;;;;;;5073656;28;20051;-64
2022/09/17 02:30:54;;;;;;;10.32;2.08;;;11.10;99.90;;;;;;5082242;28;20118;-63
2022/09/17 02:33:20;;;;;;;9.07;1.95;;;11.00;99.90;;;;;;5091151;28;20116;-64
2022/09/17 02:35:46;;;;;;;11.60;2.03;;;11.00;99.90;;;;;;5095596;28;20032;-63
2022/09/17 02:38:12;;;;;;;9.55;1.75;;;11.00;99.90;;;;;;5091588;28;20039;-63
2022/09/17 02:40:47;;;;;;;12.45;2.15;;;10.90;99.90;;;;;;5093084;28;20036;-63
2022/09/17 02:43:22;;;;;;;8.38;1.80;;;10.90;99.90;;;;;;5070948;28;20052;-63
2022/09/17 02:46:06;;;;;;;10.10;1.75;;;10.90;99.90;;;;;;5088781;28;20035;-64
2022/09/17 02:48:56;;;;;;;8.45;1.73;;;10.80;99.90;;;;;;5069293;28;20732;-64
2022/09/17 02:51:36;;;;;;;11.40;1.80;;;10.80;99.90;;;;;;5094681;28;20089;-63
2022/09/17 02:54:09;;;;;;;10.32;1.95;;;10.80;99.90;;;;;;5088000;28;20067;-64
2022/09/17 02:56:53;;;;;;;11.38;1.70;;;10.80;99.90;;;;;;5091203;28;20031;-63
2022/09/17 02:59:23;;;;;;;12.43;2.15;;;10.80;99.90;;;;;;5090786;28;20036;-63
2022/09/17 03:02:27;;;;;;;10.40;1.85;;;10.70;99.90;;;;;;5084705;28;20569;-63
2022/09/17 03:04:54;;;;;;;10.52;2.30;;;10.80;99.90;;;;;;5035663;28;20130;-63
2022/09/17 03:07:21;;;;;;;8.48;1.60;;;10.70;99.90;;;;;;5074128;28;20048;-63
2022/09/17 03:09:47;;;;;;;10.57;1.88;;;10.80;99.90;;;;;;5099220;28;20048;-63
2022/09/17 03:12:14;;;;;;;12.45;2.05;;;10.70;99.90;;;;;;5105036;28;20080;-63
2022/09/17 03:14:39;;;;;;;14.93;1.83;;;10.70;99.90;;;;;;5070920;28;20528;-63
2022/09/17 03:17:05;;;;;;;14.90;1.80;;;10.70;99.90;;;;;;5092577;28;20036;-63
2022/09/17 03:19:30;;;;;;;7.90;1.67;;;10.70;99.90;;;;;;5057265;28;20110;-64
2022/09/17 03:21:56;;;;;;;6.82;1.20;;;10.70;99.90;;;;;;5085516;28;20047;-63
2022/09/17 03:24:21;;;;;;;10.02;1.92;;;10.70;99.90;;;;;;5099172;28;20119;-63
2022/09/17 03:26:48;;;;;;;9.75;1.58;;;10.60;99.90;;;;;;5084828;28;20050;-63
2022/09/17 03:29:14;;;;;;;9.77;1.60;;;10.60;99.90;;;;;;5085710;28;20043;-63
2022/09/17 03:31:40;;;;;;;11.02;2.38;;;10.60;99.90;;;;;;5095681;28;20401;-63
2022/09/17 03:34:06;;;;;;;8.15;1.52;;;10.60;99.90;;;;;;5097566;28;20115;-63
2022/09/17 03:36:32;;;;;;;9.18;1.75;;;10.70;99.90;;;;;;5091464;28;20109;-63
2022/09/17 03:38:58;;;;;;;7.82;1.70;;;10.60;99.90;;;;;;5081022;28;20032;-63
2022/09/17 03:41:25;;;;;;;10.00;1.85;;;10.60;99.90;;;;;;5062109;28;20036;-63
2022/09/17 03:43:51;;;;;;;8.60;1.67;;;10.60;99.90;;;;;;5090512;28;20051;-63
2022/09/17 03:46:17;;;;;;;7.03;1.52;;;10.60;99.90;;;;;;5073151;28;20111;-63
2022/09/17 03:48:42;;;;;;;11.88;1.90;;;10.60;99.90;;;;;;5097636;28;20554;-63
2022/09/17 03:51:09;;;;;;;7.75;1.75;;;10.50;99.90;;;;;;5095587;28;20118;-63
2022/09/17 03:53:34;;;;;;;11.50;2.05;;;10.60;99.90;;;;;;5082333;28;20043;-63
2022/09/17 03:56:02;;;;;;;9.07;1.65;;;10.60;99.90;;;;;;5099061;28;20032;-63
2022/09/17 03:58:29;;;;;;;8.07;1.35;;;10.50;99.90;;;;;;5090599;28;20038;-65
2022/09/17 04:00:56;;;;;;;11.65;1.80;;;10.60;99.90;;;;;;5093373;28;20039;-63
2022/09/17 04:03:24;;;;;;;9.65;1.92;;;10.60;99.90;;;;;;5085508;28;20048;-64
2022/09/17 04:05:50;;;;;;;9.50;1.73;;;10.50;99.90;;;;;;5105737;28;20056;-64
2022/09/17 04:08:16;;;;;;;10.38;1.85;;;10.50;99.90;;;;;;5098028;28;20403;-63
2022/09/17 04:10:43;;;;;;;10.10;1.60;;;10.50;99.90;;;;;;5088489;28;20051;-63
2022/09/17 04:13:09;;;;;;;12.98;2.17;;;10.50;99.90;;;;;;5096565;28;20044;-63
2022/09/17 04:15:35;;;;;;;11.38;2.15;;;10.50;99.90;;;;;;5075640;28;20071;-63
2022/09/17 04:18:00;;;;;;;11.30;2.33;;;10.50;99.90;;;;;;5082471;28;20074;-63
2022/09/17 04:20:26;;;;;;;8.48;1.90;;;10.50;99.90;;;;;;5096512;28;20036;-63
2022/09/17 04:22:52;;;;;;;9.77;2.03;;;10.50;99.90;;;;;;5087489;28;20051;-63
2022/09/17 04:25:19;;;;;;;9.25;1.63;;;10.50;99.90;;;;;;5086410;28;20421;-63
2022/09/17 04:27:44;;;;;;;6.85;1.85;;;10.50;99.90;;;;;;5100581;28;20498;-64
2022/09/17 04:30:11;;;;;;;8.27;1.85;;;10.40;99.90;;;;;;5068543;28;20131;-63
2022/09/17 04:32:36;;;;;;;10.50;1.80;;;10.40;99.90;;;;;;5071792;28;20032;-63
2022/09/17 04:35:03;;;;;;;7.75;1.88;;;10.40;99.90;;;;;;5067672;28;20475;-63
2022/09/17 04:37:29;;;;;;;10.32;2.00;;;10.40;99.90;;;;;;5097651;28;20120;-63
2022/09/17 04:39:55;;;;;;;9.95;2.28;;;10.40;99.90;;;;;;5071836;28;20123;-64
2022/09/17 04:42:20;;;;;;;9.82;1.80;;;10.40;99.90;;;;;;5050771;28;20394;-63
2022/09/17 04:44:46;;;;;;;10.55;1.83;;;10.40;99.90;;;;;;5088842;28;20669;-63
2022/09/17 04:47:12;;;;;;;8.82;1.77;;;10.40;99.90;;;;;;5072307;28;20118;-63
2022/09/17 04:49:37;;;;;;;10.13;1.90;;;10.30;99.90;;;;;;5078880;28;20082;-63
2022/09/17 04:52:03;;;;;;;9.55;1.60;;;10.30;99.90;;;;;;5072672;28;20086;-63
2022/09/17 04:54:29;;;;;;;10.23;2.40;;;10.30;99.90;;;;;;5086735;28;20081;-63
2022/09/17 04:56:54;;;;;;;14.35;1.83;;;10.30;99.90;;;;;;5078370;28;20482;-63
2022/09/17 04:59:20;;;;;;;12.18;2.13;;;10.40;99.90;;;;;;5094623;28;20039;-63
2022/09/17 05:01:45;;;;;;;11.13;1.75;;;10.40;99.90;;;;;;5091959;28;20521;-64
2022/09/17 05:04:11;;;;;;;8.82;1.63;;;10.50;99.90;;;;;;5071553;28;20051;-64
2022/09/17 05:06:37;;;;;;;9.98;1.70;;;10.50;99.90;;;;;;5071862;28;20149;-64
2022/09/17 05:09:02;;;;;;;7.78;1.75;;;10.50;99.90;;;;;;5102781;28;20028;-64
2022/09/17 05:11:28;;;;;;;6.40;1.45;;;10.50;99.90;;;;;;5071776;28;20094;-64
2022/09/17 05:13:54;;;;;;;8.30;1.60;;;10.50;99.90;;;;;;5072257;28;20040;-64
2022/09/17 05:16:19;;;;;;;6.38;1.40;;;10.50;99.90;;;;;;5093597;28;20031;-64
2022/09/17 05:18:45;;;;;;;8.18;1.60;;;10.50;99.90;;;;;;5090143;28;20106;-64
2022/09/17 05:21:11;;;;;;;9.35;1.55;;;10.50;99.90;;;;;;5075707;28;20040;-64
2022/09/17 05:23:37;;;;;;;9.57;1.65;;;10.40;99.90;;;;;;5087163;28;20402;-63
2022/09/17 05:26:02;;;;;;;9.85;1.63;;;10.40;99.90;;;;;;5099231;28;20055;-63
2022/09/17 05:28:28;;;;;;;6.65;1.30;;;10.40;99.90;;;;;;5092094;28;20071;-64
2022/09/17 05:30:57;;;;;;;8.15;1.77;;;10.40;99.90;;;;;;5079668;28;20047;-64
2022/09/17 05:33:23;;;;;;;8.75;1.40;;;10.30;99.90;;;;;;5102794;28;20422;-63
2022/09/17 05:35:48;;;;;;;10.73;1.40;;;10.30;99.90;;;;;;5102902;28;20119;-63
2022/09/17 05:38:14;;;;;;;6.70;1.55;;;10.30;99.90;;;;;;5100416;28;20024;-63
2022/09/17 05:40:40;;;;;;;9.45;1.40;;;10.20;99.90;;;;;;5067543;28;20040;-63
2022/09/17 05:43:06;;;;;;;9.13;1.40;;;10.20;99.90;;;;;;5084156;28;20036;-64
2022/09/17 05:45:33;;;;;;;8.95;1.30;;;10.20;99.90;;;;;;5091576;28;20039;-63
2022/09/17 05:48:00;;;;;;;8.52;1.30;;;10.20;99.90;;;;;;5097306;28;20085;-64
2022/09/17 05:50:27;;;;;;;7.38;1.45;;;10.20;99.90;;;;;;5084001;28;20382;-63
2022/09/17 05:52:54;;;;;;;6.00;1.50;;;10.20;99.90;;;;;;5088001;28;20084;-64
2022/09/17 05:55:21;;;;;;;6.90;1.70;;;10.10;99.90;;;;;;5093047;28;20032;-63
2022/09/17 05:57:47;;;;;;;8.02;1.73;;;10.20;99.90;;;;;;5093465;28;20036;-63
2022/09/17 06:00:14;;;;;;;10.48;1.67;;;10.10;99.90;;;;;;5090268;28;20040;-64
2022/09/17 06:02:39;;;;;;;7.72;1.73;;;10.10;99.90;;;;;;5093014;28;20371;-63
2022/09/17 06:05:06;;;;;;;8.57;1.73;;;10.10;99.90;;;;;;5094999;28;20088;-63
2022/09/17 06:07:35;;;;;;;10.07;1.50;;;10.10;99.90;;;;;;5080045;28;20036;-63
2022/09/17 06:10:01;;;;;;;9.45;1.63;;;10.10;99.90;;;;;;5068734;28;20039;-63
2022/09/17 06:12:27;;;;;;;8.85;1.80;;;10.10;99.90;;;;;;5076091;28;20028;-63
2022/09/17 06:14:52;;;;;;;9.43;1.58;;;10.20;99.90;;;;;;5092215;28;20042;-63
2022/09/17 06:17:18;;;;;;;7.70;1.90;;;10.20;99.90;;;;;;5079085;28;20546;-63
2022/09/17 06:19:43;;;;;;;11.13;1.98;;;10.20;99.90;;;;;;5074104;28;20093;-63
2022/09/17 06:22:09;;;;;;;10.13;1.75;;;10.20;99.90;;;;;;5086489;28;20417;-63
2022/09/17 06:24:34;;;;;;;11.45;1.98;;;10.20;99.90;;;;;;5095366;28;20031;-63
2022/09/17 06:27:00;;;;;;;8.68;1.70;;;10.30;99.90;;;;;;5096482;28;20074;-63
2022/09/17 06:29:26;;;;;;;11.35;1.80;;;10.30;99.90;;;;;;5087696;28;20039;-63
2022/09/17 06:31:52;;;;;;;12.40;2.25;;;10.40;99.90;;;;;;5098739;28;20040;-63
2022/09/17 06:34:18;;;;;;;10.75;1.90;;;10.40;99.90;;;;;;5074346;28;20063;-63
2022/09/17 06:36:44;;;;;;;11.38;2.08;;;10.50;99.90;;;;;;5073773;28;20079;-63
2022/09/17 06:39:10;;;;;;;7.75;2.15;;;10.50;99.90;;;;;;5070018;28;21321;-63
2022/09/17 06:41:37;;;;;;;10.90;1.90;;;10.60;99.90;;;;;;5078159;28;20405;-64
2022/09/17 06:44:04;;;;;;;13.02;2.20;;;10.70;99.90;;;;;;5073785;28;20047;-64
2022/09/17 06:46:29;;;;;;;8.25;2.05;;;10.70;99.90;;;;;;5094000;28;20120;-63
2022/09/17 06:48:55;;;;;;;9.93;1.83;;;10.70;99.90;;;;;;5092880;28;20173;-64
2022/09/17 06:51:21;;;;;;;10.77;1.83;;;10.70;99.90;;;;;;5099922;28;20469;-64
2022/09/17 06:53:47;;;;;;;6.50;1.23;;;10.70;99.90;;;;;;5071234;28;20040;-64
2022/09/17 06:56:16;;;;;;;6.18;1.50;;;10.70;99.90;;;;;;5079946;28;20085;-64
2022/09/17 06:58:43;;;;;;;8.82;1.63;;;10.60;99.90;;;;;;5085101;28;20031;-64
2022/09/17 07:01:10;;;;;;;7.63;1.38;;;10.60;99.90;;;;;;5068095;28;20036;-64
2022/09/17 07:03:36;;;;;;;9.35;1.58;;;10.60;99.90;;;;;;5076909;28;20054;-64
2022/09/17 07:06:03;;;;;;;8.63;1.50;;;10.70;99.90;;;;;;5071998;28;20040;-64
2022/09/17 07:08:33;;;;;;;7.35;1.73;;;10.80;99.90;;;;;;5097710;28;20102;-64
2022/09/17 07:10:58;;;;;;;11.27;1.48;;;10.90;99.90;;;;;;5071983;28;20627;-64
2022/09/17 07:13:25;;;;;;;8.50;1.90;;;10.90;99.90;;;;;;5092789;28;20040;-64
2022/09/17 07:15:59;;;;;;;6.95;1.40;;;11.00;99.90;;;;;;5063189;28;20036;-64
2022/09/17 07:18:26;;;;;;;6.75;1.40;;;11.00;99.90;;;;;;5088559;28;20036;-64
2022/09/17 07:20:56;;;;;;;6.57;1.33;;;11.00;99.90;;;;;;5083097;28;20090;-64
2022/09/17 07:23:27;;;;;;;6.40;1.40;;;11.00;99.90;;;;;;5082492;28;20059;-64
2022/09/17 07:25:59;;;;;;;8.05;1.33;;;11.00;99.90;;;;;;5080284;28;20037;-64
2022/09/17 07:28:26;;;;;;;7.65;1.10;;;11.00;99.90;;;;;;5087430;28;20398;-64
2022/09/17 07:30:52;;;;;;;6.75;1.08;;;11.00;99.90;;;;;;5088139;28;20044;-64
2022/09/17 07:33:24;;;;;;;7.38;1.35;;;10.90;99.90;;;;;;5069792;28;20044;-64
2022/09/17 07:35:58;;;;;;;6.60;1.35;;;10.90;99.90;;;;;;5094408;28;20519;-64
2022/09/17 07:38:24;;;;;;;6.00;1.30;;;11.00;99.90;;;;;;5069309;28;20029;-64
2022/09/17 07:40:57;;;;;;;9.35;1.42;;;11.00;99.90;;;;;;5084039;28;20043;-64
2022/09/17 07:43:25;;;;;;;11.48;1.52;;;11.10;99.90;;;;;;5080938;28;20044;-64
2022/09/17 07:45:51;;;;;;;8.30;1.50;;;11.20;99.90;;;;;;5086954;28;20040;-64
2022/09/17 07:48:17;;;;;;;5.20;1.02;;;11.30;99.90;;;;;;5075267;28;20032;-64
2022/09/17 07:50:43;;;;;;;4.95;1.10;;;11.30;99.90;;;;;;5087422;28;20410;-64
2022/09/17 07:53:08;;;;;;;10.65;1.83;;;11.40;99.90;;;;;;5094202;28;20039;-64
2022/09/17 07:55:34;;;;;;;6.13;1.08;;;11.40;99.90;;;;;;5087940;28;20036;-64
2022/09/17 07:58:00;;;;;;;5.43;1.00;;;11.50;99.90;;;;;;5076105;28;20713;-64
2022/09/17 08:00:26;;;;;;;5.57;1.17;;;11.50;99.90;;;;;;5085699;28;20398;-64
2022/09/17 08:02:55;;;;;;;5.45;1.15;;;11.50;99.90;;;;;;5073799;28;20043;-64
2022/09/17 08:05:23;;;;;;;7.55;1.40;;;11.60;99.90;;;;;;5080984;28;20040;-64
2022/09/17 08:07:54;;;;;;;6.60;1.35;;;11.70;99.90;;;;;;5077660;28;20055;-64
2022/09/17 08:10:21;;;;;;;4.38;1.23;;;11.70;99.90;;;;;;5077024;28;20079;-64
2022/09/17 08:12:48;;;;;;;5.00;1.20;;;11.60;99.90;;;;;;5079931;28;20040;-64
2022/09/17 08:15:15;;;;;;;5.82;1.05;;;11.70;99.90;;;;;;5083324;28;20399;-64
2022/09/17 08:17:45;;;;;;;7.57;1.13;;;11.70;99.90;;;;;;5076954;28;20443;-64
2022/09/17 08:20:18;;;;;;;3.20;1.00;;;11.70;99.90;;;;;;5070550;28;20387;-64
2022/09/17 08:22:43;;;;;;;5.30;1.17;;;11.70;99.90;;;;;;5092144;28;20093;-64
2022/09/17 08:25:10;;;;;;;6.70;1.10;;;11.70;99.90;;;;;;5080268;28;20478;-64
2022/09/17 08:27:39;;;;;;;4.72;1.02;;;11.70;99.90;;;;;;5075742;28;20032;-65
2022/09/17 08:30:08;;;;;;;6.10;0.95;;;11.70;99.90;;;;;;5060255;28;20028;-64
2022/09/17 08:32:33;;;;;;;5.40;1.13;;;11.80;99.90;;;;;;5066765;28;20032;-64
2022/09/17 08:34:59;;;;;;;4.88;1.10;;;11.80;99.90;;;;;;5083201;28;20035;-65
2022/09/17 08:37:28;;;;;;;5.40;0.90;;;11.90;99.90;;;;;;5066014;28;20028;-64
2022/09/17 08:39:54;;;;;;;4.03;0.93;;;12.00;99.90;;;;;;5093560;28;20040;-64
2022/09/17 08:42:45;;;;;;;4.82;1.10;;;12.10;99.90;;;;;;5084561;28;20153;-65
2022/09/17 08:45:17;;;;;;;5.25;1.20;;;12.20;99.90;;;;;;5082153;28;20028;-64
2022/09/17 08:47:45;;;;;;;3.60;1.08;;;12.20;99.90;;;;;;5067678;28;20302;-64
2022/09/17 08:50:37;;;;;;;5.53;1.10;;;12.10;99.90;;;;;;5088679;28;20032;-64
2022/09/17 08:53:30;;;;;;;6.50;1.17;;;12.10;99.90;;;;;;5072373;28;20065;-64
2022/09/17 08:56:04;;;;;;;3.00;0.95;;;12.20;99.90;;;;;;5083657;28;20044;-64
2022/09/17 08:58:57;;;;;;;7.05;1.20;;;12.30;99.90;;;;;;5070020;28;20106;-64
2022/09/17 09:01:26;;;;;;;4.93;1.13;;;12.40;99.90;;;;;;5094450;28;20489;-64
2022/09/17 09:04:22;;;;;;;7.50;1.33;;;12.40;99.90;;;;;;5101706;28;20043;-64
2022/09/17 09:07:11;;;;;;;3.35;0.73;;;12.40;99.90;;;;;;5077728;28;20071;-64
2022/09/17 09:09:42;;;;;;;3.25;0.85;;;12.50;99.90;;;;;;5088534;28;20028;-64
2022/09/17 09:12:19;;;;;;;5.60;1.02;;;12.60;99.90;;;;;;5065365;28;20534;-63
2022/09/17 09:14:50;;;;;;;4.15;0.90;;;12.60;99.90;;;;;;5066235;28;20491;-65
2022/09/17 09:17:17;;;;;;;7.80;1.35;;;12.60;99.90;;;;;;5073428;28;20081;-64
2022/09/17 09:19:44;;;;;;;6.53;1.25;;;12.50;99.90;;;;;;5096228;28;20081;-64
2022/09/17 09:22:28;;;;;;;4.38;0.95;;;12.50;99.90;;;;;;5094707;28;20067;-64
2022/09/17 09:25:23;;;;;;;3.85;0.70;;;12.50;99.90;;;;;;5067861;28;20394;-64
2022/09/17 09:28:13;;;;;;;3.25;0.93;;;12.50;99.90;;;;;;5088198;28;20035;-65
2022/09/17 09:31:00;;;;;;;2.35;0.77;;;12.70;99.90;;;;;;5068954;28;20043;-64
2022/09/17 09:33:37;;;;;;;8.23;1.10;;;12.90;99.90;;;;;;5080989;28;20040;-64
2022/09/17 09:36:07;;;;;;;6.47;1.05;;;13.00;99.90;;;;;;5082973;28;20043;-65
2022/09/17 09:39:00;;;;;;;5.53;1.00;;;13.10;99.90;;;;;;5082801;28;20434;-64
2022/09/17 09:41:29;;;;;;;3.92;0.85;;;13.10;99.90;;;;;;5053524;28;20044;-64
2022/09/17 09:44:01;;;;;;;8.20;1.50;;;13.10;99.90;;;;;;5081182;28;20068;-64
2022/09/17 09:46:29;;;;;;;;;;;13.10;99.90;;;;;;5080340;28;20044;-65
2022/09/17 09:49:16;;;;;;;6.13;1.73;;;13.10;99.90;;;;;;5095687;28;19938;-65
2022/09/17 09:52:20;;;;;;;4.53;1.15;;;13.20;99.90;;;;;;5067460;28;20414;-65
2022/09/17 09:55:23;;;;;;;5.72;0.95;;;13.10;99.90;;;;;;5062165;28;20048;-64
2022/09/17 09:57:54;;;;;;;5.93;1.02;;;13.10;99.90;;;;;;5066918;28;20501;-65
2022/09/17 10:00:36;;;;;;;7.03;1.63;;;13.10;99.90;;;;;;5089778;28;20035;-65
2022/09/17 10:03:22;;;;;;;5.57;1.00;;;13.10;99.90;;;;;;5085670;28;20036;-64
2022/09/17 10:06:07;;;;;;;7.43;1.35;;;13.20;99.90;;;;;;5089590;28;20047;-64
2022/09/17 10:08:38;;;;;;;3.13;0.90;;;13.30;99.90;;;;;;5081202;28;20033;-64
2022/09/17 10:11:11;;;;;;;4.32;1.10;;;13.50;99.90;;;;;;5086440;28;20429;-63
2022/09/17 10:13:39;;;;;;;5.15;1.00;;;13.80;99.90;;;;;;5085917;28;20027;-64
2022/09/17 10:16:19;;;;;;;5.70;1.40;;;14.00;99.90;;;;;;5100089;28;20397;-64
2022/09/17 10:18:47;;;;;;;6.15;1.20;;;14.20;99.90;;;;;;5084196;28;20139;-63
2022/09/17 10:21:42;;;;;;;4.72;1.13;;;14.20;99.90;;;;;;5098820;28;20046;-64
2022/09/17 10:24:27;;;;;;;6.75;1.52;;;14.10;99.90;;;;;;5067946;28;20051;-63
2022/09/17 10:27:21;;;;;;;7.47;1.40;;;14.10;99.90;;;;;;5072885;28;20044;-63
2022/09/17 10:29:50;;;;;;;7.68;1.48;;;13.90;99.90;;;;;;5066048;28;20484;-63
2022/09/17 10:32:17;;;;;;;11.25;2.25;;;13.70;99.90;;;;;;5074642;28;20062;-63
2022/09/17 10:34:58;;;;;;;8.02;1.75;;;13.60;99.90;;;;;;5088401;28;20036;-63
2022/09/17 10:37:33;;;;;;;6.38;1.30;;;13.60;99.90;;;;;;5090461;28;20500;-63
2022/09/17 10:39:59;;;;;;;4.13;1.13;;;13.50;99.90;;;;;;5066652;28;20086;-64
2022/09/17 10:42:24;;;;;;;5.47;1.38;;;13.50;99.90;;;;;;5069645;28;20067;-64
2022/09/17 10:44:56;;;;;;;3.67;0.80;;;13.50;99.90;;;;;;5072322;28;20257;-64
2022/09/17 10:47:23;;;;;;;5.30;0.93;;;13.40;99.90;;;;;;5094580;28;20067;-64
2022/09/17 10:50:23;;;;;;;5.47;1.20;;;13.30;99.90;;;;;;5096074;28;20039;-66
2022/09/17 10:53:14;;;;;;;3.55;1.08;;;13.20;99.90;;;;;;5059534;28;20052;-63
2022/09/17 10:55:53;;;;;;;3.90;0.93;;;13.00;99.90;;;;;;5086668;28;20414;-63
2022/09/17 10:58:23;;;;;;;5.30;1.20;;;13.00;99.90;;;;;;5065247;28;20072;-64
2022/09/17 11:01:01;;;;;;;5.90;0.90;;;13.10;99.90;;;;;;5066986;28;20101;-65
2022/09/17 11:03:45;;;;;;;3.95;1.00;;;13.30;99.90;;;;;;5096383;27;20122;-63
2022/09/17 11:06:32;;;;;;;3.50;0.90;;;13.60;99.90;;;;;;5081819;28;20553;-63
2022/09/17 11:08:58;;;;;;;3.17;0.90;;;13.90;99.90;;;;;;5078970;28;20056;-63
2022/09/17 11:11:56;;;;;;;6.15;1.00;;;14.10;99.90;;;;;;5064293;28;20437;-65
2022/09/17 11:14:46;;;;;;;6.90;1.40;;;14.40;99.90;;;;;;5087110;28;20039;-64
2022/09/17 11:17:18;;;;;;;7.78;1.90;;;14.60;99.90;;;;;;5101969;27;20115;-64
2022/09/17 11:20:19;;;;;;;5.75;1.10;;;14.70;99.90;;;;;;5067249;28;20041;-63
2022/09/17 11:23:04;;;;;;;6.03;1.30;;;14.60;99.90;;;;;;5090691;28;20041;-64
2022/09/17 11:25:52;;;;;;;6.55;1.05;;;14.50;99.90;;;;;;5078314;28;20036;-63
2022/09/17 11:28:54;;;;;;;4.93;1.08;;;14.60;99.90;;;;;;5096970;28;20525;-63
2022/09/17 11:31:32;;;;;;;7.60;1.25;;;14.70;99.90;;;;;;5063993;28;20061;-64
2022/09/17 11:34:36;;;;;;;3.63;1.00;;;14.90;99.90;;;;;;5080098;28;20075;-62
2022/09/17 11:37:12;;;;;;;3.83;0.85;;;15.00;99.90;;;;;;5039637;28;20737;-62
2022/09/17 11:39:47;;;;;;;2.75;0.90;;;15.20;99.90;;;;;;5085985;28;20040;-62
2022/09/17 11:42:21;;;;;;;3.83;1.00;;;15.20;99.90;;;;;;5070881;28;20035;-62
2022/09/17 11:45:10;;;;;;;5.43;0.90;;;15.30;99.90;;;;;;5078146;28;20463;-64
2022/09/17 11:47:43;;;;;;;5.72;1.23;;;15.40;99.90;;;;;;5062012;28;20063;-62
2022/09/17 11:50:34;;;;;;;10.77;1.10;;;15.30;99.90;;;;;;5095612;28;20050;-63
2022/09/17 11:53:19;;;;;;;3.65;0.70;;;15.30;99.90;;;;;;5096947;28;20035;-62
2022/09/17 11:55:59;;;;;;;4.05;0.90;;;15.30;99.90;;;;;;5090017;28;20059;-62
2022/09/17 11:58:36;;;;;;;2.67;0.88;;;15.40;99.90;;;;;;5079504;28;20024;-63
2022/09/17 12:01:08;;;;;;;4.82;1.00;;;15.40;99.90;;;;;;5093007;28;20074;-63
2022/09/17 12:03:40;;;;;;;4.97;1.20;;;15.40;99.90;;;;;;5092978;28;20051;-66
2022/09/17 12:06:16;;;;;;;3.33;0.77;;;15.50;99.90;;;;;;5092073;28;20478;-62
2022/09/17 12:09:15;;;;;;;3.63;0.90;;;15.60;99.90;;;;;;5069737;28;20044;-62
2022/09/17 12:11:53;;;;;;;4.20;1.08;;;15.70;99.90;;;;;;5088002;28;20051;-65
2022/09/17 12:14:36;;;;;;;7.20;1.70;;;15.80;99.90;;;;;;5079475;28;20123;-62
2022/09/17 12:17:04;;;;;;;6.07;1.10;;;15.80;99.90;;;;;;5058496;28;20032;-63
2022/09/17 12:19:39;;;;;;;6.70;1.13;;;15.70;99.90;;;;;;5086509;28;20032;-64
2022/09/17 12:22:10;;;;;;;7.30;1.20;;;15.60;99.90;;;;;;5082380;28;20040;-62
2022/09/17 12:24:37;;;;;;;6.30;1.27;;;15.50;99.90;;;;;;5085503;28;20054;-65
2022/09/17 12:27:20;;;;;;;6.40;1.65;;;15.60;99.90;;;;;;5064746;28;20067;-62
2022/09/17 12:30:08;;;;;;;7.07;1.38;;;15.60;99.90;;;;;;5065540;28;20406;-63
2022/09/17 12:32:58;;;;;;;7.60;1.65;;;15.70;99.90;;;;;;5085914;28;20036;-63
2022/09/17 12:35:44;;;;;;;7.88;1.50;;;15.80;99.90;;;;;;5087104;28;20036;-63
2022/09/17 12:38:36;;;;;;;10.75;1.67;;;15.80;99.90;;;;;;5066522;28;20199;-62
2022/09/17 12:41:01;;;;;;;6.35;1.50;;;15.80;99.90;;;;;;5083601;28;20040;-62
2022/09/17 12:43:46;;;;;;;6.85;1.65;;;15.80;99.90;;;;;;5081535;28;20426;-62
2022/09/17 12:46:33;;;;;;;6.35;1.90;;;15.90;99.90;;;;;;5079565;28;20028;-62
2022/09/17 12:49:18;;;;;;;5.95;1.48;;;16.10;99.90;;;;;;5069086;28;20063;-63
2022/09/17 12:51:52;;;;;;;6.10;1.80;;;16.20;99.90;;;;;;5066297;28;20502;-62
2022/09/17 12:54:43;;;;;;;8.68;1.48;;;16.20;99.90;;;;;;5067133;28;20453;-64
2022/09/17 12:57:31;;;;;;;6.88;1.70;;;16.30;99.90;;;;;;5078355;28;20035;-63
2022/09/17 13:00:13;;;;;;;8.15;1.52;;;16.40;99.90;;;;;;5094631;28;20082;-63
2022/09/17 13:02:52;;;;;;;8.65;1.75;;;16.50;99.90;;;;;;5063284;28;20486;-67
2022/09/17 13:05:42;;;;;;;6.47;1.50;;;16.40;99.90;;;;;;5094492;28;20061;-63
2022/09/17 13:08:29;;;;;;;8.88;2.10;;;16.30;99.90;;;;;;5085783;28;20425;-62
2022/09/17 13:11:43;;;;;;;12.68;2.10;;;16.20;99.90;;;;;;5068604;28;20040;-64
2022/09/17 13:14:11;;;;;;;6.97;1.60;;;16.00;99.90;;;;;;4979049;28;20564;-63